Time;durP1;ratioP1;P1;durP2;ratioP2;P2;SDS_P1;SDS_P2;PMS_P1;PMS_P2;Temp;Humidity;BMP_temperature;BMP_pressure;BME280_temperature;BME280_humidity;BME280_pressure;Samples;Min_cycle;Max_cycle;Signal;HPM_P1;HPM_P2
2024/03/17 09:11:13;;;;;;;;;;;;;;;;;;6207781;22;19920;-91
2024/03/17 09:13:39;;;;;;;;;;;;;;;;;;6215147;23;20001;-91
2024/03/17 09:16:04;;;;;;;;;;;;;;;;;;6216705;23;19911;-93
2024/03/17 09:18:30;;;;;;;;;;;;;;;;;;6191945;23;19912;-93
2024/03/17 09:20:59;;;;;;;;;;;;;;;;;;6192702;23;20007;-92
2024/03/17 09:23:26;;;;;;;;;;;;;;;;;;6192858;23;19912;-93
2024/03/17 09:26:00;;;;;;;;;;;;;;;;;;6198584;23;19919;-91
2024/03/17 09:28:26;;;;;;;;;;;;;;;;;;6200182;23;19919;-93
2024/03/17 09:30:52;;;;;;;;;;;;;;;;;;6223542;23;19912;-91
2024/03/17 09:33:18;;;;;;;;;;;;;;;;;;6191876;23;19912;-91
2024/03/17 09:35:44;;;;;;;;;;;;;;;;;;6191791;23;19943;-92
2024/03/17 09:38:09;;;;;;;;;;;;;;;;;;6191605;23;19911;-92
2024/03/17 09:40:34;;;;;;;;;;;;;;;;;;6218627;23;20279;-93
2024/03/17 09:43:00;;;;;;;;;;;;;;;;;;6191966;23;19912;-91
2024/03/17 09:45:26;;;;;;;;;;;;;;;;;;6218189;23;19911;-91
2024/03/17 09:47:52;;;;;;;;;;;;;;;;;;6217811;23;19912;-93
2024/03/17 09:50:18;;;;;;;;;;;;;;;;;;6191139;23;19919;-85
2024/03/17 09:52:44;;;;;;;;;;;;;;;;;;6217673;23;19908;-86
2024/03/17 09:55:14;;;;;;;;;;;;;;;;;;6217686;23;19912;-86
2024/03/17 09:57:40;;;;;;;;;;;;;;;;;;6217405;23;19992;-85
2024/03/17 10:00:13;;;;;;;;;;;;;;;;;;6217864;23;19911;-86
2024/03/17 10:02:45;;;;;;;;;;;;;;;;;;6217844;23;19916;-88
2024/03/17 10:05:37;;;;;;;;;;;;;;;;;;6191017;23;19926;-90
2024/03/17 10:08:02;;;;;;;;;;;;;;;;;;6186680;23;19911;-88
2024/03/17 10:10:27;;;;;;;;;;;;;;;;;;6191694;23;20243;-92
2024/03/17 10:12:53;;;;;;;;;;;;;;;;;;6217633;23;19922;-92
2024/03/17 10:15:20;;;;;;;;;;;;;;;;;;6191010;23;20251;-91
2024/03/17 10:17:45;;;;;;;;;;;;;;;;;;6190921;23;19912;-91
2024/03/17 10:20:17;;;;;;;;;;;;;;;;;;6190784;23;19919;-91
2024/03/17 10:22:59;;;;;;;;;;;;;;;;;;6190927;23;20304;-92
2024/03/17 10:25:25;;;;;;;;;;;;;;;;;;6191091;23;19912;-91
2024/03/17 10:27:52;;;;;;;;;;;;;;;;;;6190693;23;20026;-91
2024/03/17 10:30:19;;;;;;;;;;;;;;;;;;6217855;23;19943;-93
2024/03/17 10:32:44;;;;;;;;;;;;;;;;;;6191939;23;19942;-94
2024/03/17 10:35:26;;;;;;;;;;;;;;;;;;6191408;23;19991;-93
2024/03/17 10:37:57;;;;;;;;;;;;;;;;;;6191850;23;19912;-93
2024/03/17 10:40:23;;;;;;;;;;;;;;;;;;6197303;23;19919;-93
2024/03/17 10:42:49;;;;;;;;;;;;;;;;;;6191216;23;19918;-92
2024/03/17 10:45:15;;;;;;;;;;;;;;;;;;6192352;23;19942;-89
2024/03/17 10:47:43;;;;;;;;;;;;;;;;;;6217830;23;19912;-88
2024/03/17 10:50:14;;;;;;;;;;;;;;;;;;6190865;23;19923;-90
2024/03/17 15:41:51;;;;;;;21.92;13.75;;;;;;;;;;6251792;23;20111;-93
2024/03/17 15:44:16;;;;;;;23.77;13.57;;;;;;;;;;6247843;23;20438;-94
2024/03/17 15:46:41;;;;;;;18.20;12.38;;;;;;;;;;6247526;23;20004;-94
2024/03/17 15:49:07;;;;;;;18.80;13.05;;;;;;;;;;6220277;23;20012;-93
2024/03/17 15:51:32;;;;;;;25.60;15.73;;;;;;;;;;6247891;23;20008;-94
2024/03/17 15:53:58;;;;;;;22.63;16.35;;;;;;;;;;6250013;23;20004;-93
2024/03/17 15:56:23;;;;;;;25.27;16.38;;;;;;;;;;6222352;23;20004;-93
2024/03/17 15:58:49;;;;;;;19.65;14.07;;;;;;;;;;6223319;23;20011;-95
2024/03/17 16:01:15;;;;;;;18.90;12.70;;;;;;;;;;6223308;23;20042;-96
2024/03/17 16:03:44;;;;;;;18.40;11.65;;;;;;;;;;6233579;23;20419;-94
2024/03/17 16:06:16;;;;;;;20.60;13.93;;;;;;;;;;6233974;23;20007;-95
2024/03/17 16:08:49;;;;;;;19.00;12.18;;;;;;;;;;6230368;23;20000;-96
2024/03/17 16:11:17;;;;;;;21.70;14.02;;;;;;;;;;6260867;23;19993;-95
2024/03/17 16:13:44;;;;;;;16.45;10.23;;;;;;;;;;6214149;23;20014;-96
2024/03/17 16:16:17;;;;;;;14.50;9.35;;;;;;;;;;6233822;23;20004;-95
2024/03/17 16:18:45;;;;;;;14.52;9.98;;;;;;;;;;6261382;23;20026;-94
2024/03/17 16:21:14;;;;;;;18.13;12.07;;;;;;;;;;6236268;23;20012;-95
2024/03/17 16:24:10;;;;;;;19.65;13.50;;;;;;;;;;6229992;23;20027;-96
2024/03/17 16:26:41;;;;;;;;;;;;;;;;;;6228886;23;20138;-96
2024/03/17 16:29:07;;;;;;;;;;;;;;;;;;6229496;23;19907;-95
2024/03/17 16:31:32;;;;;;;;;;;;;;;;;;6225923;23;20009;-96
2024/03/17 16:33:59;;;;;;;;;;;;;;;;;;6226154;23;20195;-96
2024/03/17 16:36:25;;;;;;;;;;;;;;;;;;6227000;23;19911;-96
2024/03/17 16:38:52;;;;;;;;;;;;;;;;;;6226111;23;20026;-96
2024/03/17 16:41:18;;;;;;;;;;;;;;;;;;6230740;23;19915;-95
2024/03/17 16:43:51;;;;;;;;;;;;;;;;;;6270242;23;19915;-95
2024/03/17 16:46:28;;;;;;;;;;;;;;;;;;6224870;23;19914;-95
2024/03/17 16:48:54;;;;;;;;;;;;;;;;;;6200570;23;19926;-95
2024/03/17 16:51:19;;;;;;;;;;;;;;;;;;6225558;23;19982;-96
2024/03/17 16:53:46;;;;;;;;;;;;;;;;;;6227145;23;19938;-90
2024/03/17 16:56:12;;;;;;;;;;;;;;;;;;6197659;23;20243;-90
2024/03/17 16:58:37;;;;;;;;;;;;;;;;;;6222592;23;19934;-92
2024/03/17 17:01:02;;;;;;;;;;;;;;;;;;6223119;23;19907;-90
2024/03/17 17:03:28;;;;;;;;;;;;;;;;;;6222431;23;20278;-93
2024/03/17 17:05:53;;;;;;;;;;;;;;;;;;6222289;23;19914;-90
2024/03/17 17:08:19;;;;;;;;;;;;;;;;;;6249425;23;20323;-90
2024/03/17 17:10:45;;;;;;;;;;;;;;;;;;6228395;23;19915;-90
2024/03/17 17:13:10;;;;;;;;;;;;;;;;;;6222192;23;19946;-93
2024/03/17 17:15:38;;;;;;;;;;;;;;;;;;6225661;23;20330;-95
2024/03/17 17:18:07;;;;;;;;;;;;;;;;;;6254232;22;19934;-90
2024/03/17 17:20:34;;;;;;;;;;;;;;;;;;6228038;23;19914;-95
2024/03/17 17:22:59;;;;;;;;;;;;;;;;;;6249140;23;19907;-94
2024/03/17 17:25:25;;;;;;;;;;;;;;;;;;6222372;23;19986;-96
2024/03/17 17:27:50;;;;;;;;;;;;;;;;;;6222181;23;20315;-95
2024/03/17 17:30:16;;;;;;;;;;;;;;;;;;6220755;23;20567;-91
2024/03/17 17:32:41;;;;;;;;;;;;;;;;;;6247893;23;19904;-94
2024/03/17 17:35:08;;;;;;;;;;;;;;;;;;6221912;23;20318;-93
2024/03/17 17:37:34;;;;;;;;;;;;;;;;;;6221890;23;19903;-88
2024/03/17 17:40:00;;;;;;;;;;;;;;;;;;6222134;23;19987;-89
2024/03/17 17:42:26;;;;;;;;;;;;;;;;;;6249016;23;19958;-92
2024/03/17 17:44:51;;;;;;;;;;;;;;;;;;6249724;23;19983;-93
2024/03/17 17:47:18;;;;;;;;;;;;;;;;;;6249254;23;19908;-89
2024/03/17 17:49:43;;;;;;;;;;;;;;;;;;6249896;23;19907;-89
2024/03/17 17:52:09;;;;;;;;;;;;;;;;;;6222666;23;19913;-93
2024/03/17 17:54:35;;;;;;;;;;;;;;;;;;6222656;23;19908;-89
2024/03/17 17:57:01;;;;;;;;;;;;;;;;;;6222629;23;19941;-96
2024/03/17 17:59:27;;;;;;;;;;;;;;;;;;6248996;23;19914;-94
2024/03/17 18:01:54;;;;;;;;;;;;;;;;;;6249411;23;20251;-95
2024/03/17 18:04:20;;;;;;;;;;;;;;;;;;6222635;23;19907;-96
2024/03/17 18:06:46;;;;;;;;;;;;;;;;;;6222555;23;19913;-92
2024/03/17 18:09:18;;;;;;;;;;;;;;;;;;6222341;23;20003;-94
2024/03/17 18:11:46;;;;;;;;;;;;;;;;;;6249024;23;19911;-92
2024/03/17 18:14:12;;;;;;;;;;;;;;;;;;6222730;23;19908;-95
2024/03/17 18:16:38;;;;;;;;;;;;;;;;;;6225578;23;19909;-93
2024/03/17 18:19:06;;;;;;;;;;;;;;;;;;6248671;23;19907;-93
2024/03/17 18:21:32;;;;;;;;;;;;;;;;;;6222048;23;19947;-94
2024/03/17 18:23:58;;;;;;;;;;;;;;;;;;6222099;23;19915;-95
2024/03/17 18:26:24;;;;;;;;;;;;;;;;;;6222324;23;19929;-94
2024/03/17 18:28:49;;;;;;;;;;;;;;;;;;6221919;23;19913;-93
2024/03/17 18:31:14;;;;;;;;;;;;;;;;;;6229669;23;19912;-93
2024/03/17 18:33:43;;;;;;;;;;;;;;;;;;6237123;23;19910;-91
2024/03/17 18:36:11;;;;;;;;;;;;;;;;;;6243399;23;19907;-95
2024/03/17 18:38:37;;;;;;;;;;;;;;;;;;6272462;22;19918;-95
2024/03/17 18:41:09;;;;;;;;;;;;;;;;;;6270866;23;20311;-96
2024/03/17 18:43:46;;;;;;;;;;;;;;;;;;6267790;22;19916;-96
2024/03/17 18:46:14;;;;;;;;;;;;;;;;;;6229603;23;19907;-96
2024/03/17 18:48:41;;;;;;;;;;;;;;;;;;6239205;23;19896;-93
2024/03/17 18:51:13;;;;;;;;;;;;;;;;;;6242917;23;19908;-95
2024/03/17 18:53:40;;;;;;;;;;;;;;;;;;6242666;23;19895;-96
2024/03/17 18:56:07;;;;;;;;;;;;;;;;;;6238372;23;19916;-96
2024/03/17 18:58:33;;;;;;;;;;;;;;;;;;6210568;23;19931;-96
2024/03/17 19:01:03;;;;;;;;;;;;;;;;;;6264341;23;19907;-97
2024/03/17 19:03:32;;;;;;;;;;;;;;;;;;6212132;23;19911;-94
2024/03/17 19:06:06;;;;;;;;;;;;;;;;;;6234451;23;19909;-94
2024/03/17 19:08:31;;;;;;;;;;;;;;;;;;6238503;23;19955;-95
2024/03/17 19:10:58;;;;;;;;;;;;;;;;;;6241691;23;19911;-96
2024/03/17 19:13:26;;;;;;;;;;;;;;;;;;6238579;23;19959;-96
2024/03/17 19:18:33;;;;;;;;;;;;;;;;;;6250820;22;19963;-95
2024/03/17 19:21:15;;;;;;;;;;;;;;;;;;6270466;22;20011;-90
2024/03/17 19:23:44;;;;;;;;;;;;;;;;;;6267722;22;19961;-93
2024/03/17 19:26:29;;;;;;;;;;;;;;;;;;6239584;23;19911;-92
2024/03/17 19:28:55;;;;;;;;;;;;;;;;;;6207834;23;20353;-96
2024/03/17 19:31:21;;;;;;;;;;;;;;;;;;6207411;23;19904;-92
2024/03/17 19:33:52;;;;;;;;;;;;;;;;;;6184908;23;19912;-95
2024/03/17 19:36:21;;;;;;;;;;;;;;;;;;6216968;23;19903;-93
2024/03/17 19:38:56;;;;;;;;;;;;;;;;;;6228340;22;19908;-95
2024/03/17 19:41:27;;;;;;;;;;;;;;;;;;6167983;23;19896;-96
2024/03/17 19:43:56;;;;;;;;;;;;;;;;;;6219110;23;19895;-89
2024/03/17 19:46:54;;;;;;;;;;;;;;;;;;6230826;22;19907;-90
2024/03/17 19:49:34;;;;;;;;;;;;;;;;;;6237090;22;19906;-90
2024/03/17 19:52:20;;;;;;;;;;;;;;;;;;6160664;23;19900;-93
2024/03/17 19:54:53;;;;;;;;;;;;;;;;;;6243399;23;19916;-93
2024/03/17 19:57:26;;;;;;;;;;;;;;;;;;6244527;23;19892;-93
2024/03/17 20:00:14;;;;;;;;;;;;;;;;;;6218044;23;19896;-94
2024/03/17 20:02:40;;;;;;;;;;;;;;;;;;6245745;22;19900;-96
2024/03/17 20:05:17;;;;;;;;;;;;;;;;;;6230382;23;19952;-93
2024/03/17 20:07:46;;;;;;;;;;;;;;;;;;6240669;23;19896;-94
2024/03/17 20:10:21;;;;;;;;;;;;;;;;;;6242692;23;19944;-94
2024/03/17 20:12:55;;;;;;;;;;;;;;;;;;6218692;23;19896;-92
2024/03/17 20:15:26;;;;;;;;;;;;;;;;;;6219624;23;19908;-93
2024/03/17 20:20:33;;;;;;;;;;;;;;;;;;6274750;22;19947;-92
2024/03/17 20:23:13;;;;;;;;;;;;;;;;;;6272744;22;19895;-93
2024/03/17 20:25:39;;;;;;;;;;;;;;;;;;6249215;23;19947;-92
2024/03/17 20:28:15;;;;;;;;;;;;;;;;;;6245424;22;19935;-93
2024/03/17 20:30:45;;;;;;;;;;;;;;;;;;6235191;23;19907;-92
2024/03/17 20:33:16;;;;;;;;;;;;;;;;;;6258699;23;19912;-92
2024/03/17 20:35:42;;;;;;;;;;;;;;;;;;6228809;23;19908;-95
2024/03/17 20:38:10;;;;;;;;;;;;;;;;;;6225079;23;19908;-91
2024/03/17 20:40:36;;;;;;;;;;;;;;;;;;6229045;23;19908;-96
2024/03/17 20:43:02;;;;;;;;;;;;;;;;;;6229357;23;19908;-96
2024/03/17 20:45:28;;;;;;;;;;;;;;;;;;6237937;23;19939;-95
2024/03/17 20:47:55;;;;;;;;;;;;;;;;;;6239191;23;19892;-96
2024/03/17 20:50:21;;;;;;;;;;;;;;;;;;6210644;23;19930;-96
2024/03/17 20:52:47;;;;;;;;;;;;;;;;;;6263057;23;19908;-96
2024/03/17 20:55:13;;;;;;;;;;;;;;;;;;6231561;23;19908;-93
2024/03/17 20:57:40;;;;;;;;;;;;;;;;;;6232202;23;19903;-96
2024/03/17 21:00:21;;;;;;;;;;;;;;;;;;6237360;23;19908;-96
2024/03/17 21:02:55;;;;;;;;;;;;;;;;;;6238365;23;19908;-96
2024/03/17 21:05:23;;;;;;;;;;;;;;;;;;6233692;23;20334;-92
2024/03/17 21:07:49;;;;;;;;;;;;;;;;;;6230788;23;19908;-96
2024/03/17 21:10:17;;;;;;;;;;;;;;;;;;6264206;23;19957;-90
2024/03/17 21:13:00;;;;;;;;;;;;;;;;;;6240991;23;19911;-91
2024/03/17 21:15:47;;;;;;;;;;;;;;;;;;6266747;23;19907;-92
2024/03/17 21:18:12;;;;;;;;;;;;;;;;;;6238699;23;19955;-93
2024/03/17 21:20:38;;;;;;;;;;;;;;;;;;6234140;23;20318;-93
2024/03/17 21:23:04;;;;;;;;;;;;;;;;;;6229575;23;20030;-92
2024/03/17 21:25:29;;;;;;;;;;;;;;;;;;6232964;23;19938;-92
2024/03/17 21:27:55;;;;;;;;;;;;;;;;;;6261087;23;19995;-91
2024/03/17 21:30:21;;;;;;;;;;;;;;;;;;6232805;23;20405;-94
2024/03/17 21:32:50;;;;;;;;;;;;;;;;;;6260093;23;19908;-94
2024/03/17 21:35:17;;;;;;;;;;;;;;;;;;6261018;23;20315;-93
2024/03/17 21:37:43;;;;;;;;;;;;;;;;;;6235915;23;19955;-92
2024/03/17 21:40:13;;;;;;;;;;;;;;;;;;6261310;23;19914;-94
2024/03/17 21:42:41;;;;;;;;;;;;;;;;;;6233512;23;19908;-95
2024/03/17 21:45:08;;;;;;;;;;;;;;;;;;6259670;23;19961;-90
2024/03/17 21:47:36;;;;;;;;;;;;;;;;;;6239921;23;19908;-89
2024/03/17 21:50:03;;;;;;;;;;;;;;;;;;6233163;23;20284;-90
2024/03/17 21:52:32;;;;;;;;;;;;;;;;;;6238554;23;19907;-91
2024/03/17 21:54:58;;;;;;;;;;;;;;;;;;6238687;23;19971;-90
2024/03/17 21:57:25;;;;;;;;;;;;;;;;;;6229841;23;19939;-91
2024/03/17 21:59:53;;;;;;;;;;;;;;;;;;6257322;23;19940;-91
2024/03/17 22:02:18;;;;;;;;;;;;;;;;;;6230163;23;19914;-90
2024/03/17 22:04:44;;;;;;;;;;;;;;;;;;6227345;23;19911;-91
2024/03/17 22:07:12;;;;;;;;;;;;;;;;;;6225729;23;19908;-89
2024/03/17 22:09:39;;;;;;;;;;;;;;;;;;6225696;23;19908;-90
2024/03/17 22:12:05;;;;;;;;;;;;;;;;;;6234771;23;19927;-90
2024/03/17 22:14:31;;;;;;;;;;;;;;;;;;6227621;23;19908;-89
2024/03/17 22:16:56;;;;;;;;;;;;;;;;;;6252305;23;19982;-90
2024/03/17 22:19:21;;;;;;;;;;;;;;;;;;6223373;23;19911;-89
2024/03/17 22:21:48;;;;;;;;;;;;;;;;;;6222985;23;20208;-89
2024/03/17 22:24:19;;;;;;;;;;;;;;;;;;6253297;23;19907;-90
2024/03/17 22:26:48;;;;;;;;;;;;;;;;;;6258349;23;20299;-91
2024/03/17 22:29:15;;;;;;;;;;;;;;;;;;6257335;23;19907;-94
